Time;durP1;ratioP1;P1;durP2;ratioP2;P2;SDS_P1;SDS_P2;PMS_P1;PMS_P2;Temp;Humidity;BMP_temperature;BMP_pressure;BME280_temperature;BME280_humidity;BME280_pressure;Samples;Min_cycle;Max_cycle;Signal;HPM_P1;HPM_P2
2022/09/27 00:01:12;;;;;;;10.10;8.93;;;;;;;20.19;60.28;98701.09;5111897;28;20540;-37
2022/09/27 00:03:38;;;;;;;12.90;8.95;;;;;;;20.36;59.83;98686.25;5111558;28;20538;-37
2022/09/27 00:06:17;;;;;;;15.65;9.25;;;;;;;20.23;61.23;98688.59;5111034;28;20114;-37
2022/09/27 00:08:43;;;;;;;12.02;9.40;;;;;;;20.48;60.28;98700.91;5111242;28;20406;-37
2022/09/27 00:11:24;;;;;;;11.13;8.55;;;;;;;20.55;60.85;98695.16;5111437;28;20027;-37
2022/09/27 00:13:49;;;;;;;12.10;8.50;;;;;;;20.60;61.00;98680.75;5111129;28;20092;-37
2022/09/27 00:16:15;;;;;;;12.38;8.32;;;;;;;20.41;61.82;98681.59;5111226;28;20110;-37
2022/09/27 00:18:41;;;;;;;10.25;8.63;;;;;;;20.41;61.99;98688.88;5110999;28;20023;-37
2022/09/27 00:21:09;;;;;;;12.32;8.57;;;;;;;20.55;61.49;98687.03;5110727;28;20047;-37
2022/09/27 00:23:35;;;;;;;11.50;8.43;;;;;;;20.79;61.08;98684.25;5110931;28;20023;-37
2022/09/27 00:26:00;;;;;;;13.32;9.57;;;;;;;20.84;61.67;98681.44;5110804;28;20102;-37
2022/09/27 00:28:26;;;;;;;14.52;9.65;;;;;;;20.63;62.47;98680.97;5111337;28;20030;-37
2022/09/27 00:30:52;;;;;;;9.95;8.93;;;;;;;20.55;64.12;98681.63;5111008;28;20035;-37
2022/09/27 00:33:18;;;;;;;10.35;8.70;;;;;;;20.45;64.57;98690.72;5110940;28;20031;-37
2022/09/27 00:35:44;;;;;;;8.68;7.88;;;;;;;20.41;64.83;98695.09;5110680;28;20109;-37
2022/09/27 00:38:10;;;;;;;9.82;8.80;;;;;;;20.59;64.63;98696.16;5110859;28;20455;-37
2022/09/27 00:40:35;;;;;;;9.98;9.00;;;;;;;20.73;64.58;98690.81;5110941;28;20078;-37
2022/09/27 00:43:01;;;;;;;12.15;8.82;;;;;;;20.63;64.74;98680.97;5110647;28;20130;-37
2022/09/27 00:45:26;;;;;;;9.68;8.27;;;;;;;20.72;64.29;98685.72;5110833;28;20129;-37
2022/09/27 00:48:02;;;;;;;10.20;8.52;;;;;;;20.74;64.85;98672.72;5110573;28;20328;-37
2022/09/27 00:50:41;;;;;;;10.02;8.63;;;;;;;20.86;64.35;98671.13;5111163;28;20411;-37
2022/09/27 00:53:22;;;;;;;10.60;8.55;;;;;;;20.96;63.93;98669.34;5109457;28;20115;-37
2022/09/27 00:55:56;;;;;;;10.23;8.75;;;;;;;20.99;64.20;98672.25;5109201;28;20047;-37
2022/09/27 00:58:25;;;;;;;9.48;8.45;;;;;;;20.92;64.17;98668.34;5109772;28;20043;-37
2022/09/27 01:00:55;;;;;;;11.40;8.93;;;;;;;20.64;65.56;98671.00;5109543;28;20057;-37
2022/09/27 01:03:33;;;;;;;10.75;8.70;;;;;;;20.70;65.66;98673.31;5110002;28;20031;-37
2022/09/27 01:05:59;;;;;;;10.95;9.27;;;;;;;20.37;66.84;98663.53;5110477;28;20477;-37
2022/09/27 01:08:24;;;;;;;12.75;9.30;;;;;;;20.41;66.72;98651.03;5112025;28;20055;-37
2022/09/27 01:11:41;;;;;;;11.60;9.63;;;;;;;20.46;66.72;98642.88;5114994;28;20428;-37
2022/09/27 01:14:15;;;;;;;11.25;9.63;;;;;;;20.56;66.39;98642.72;5054207;28;20036;-37
2022/09/27 01:17:26;;;;;;;14.05;10.15;;;;;;;20.63;66.72;98648.53;5114647;28;20027;-37
2022/09/27 01:20:28;;;;;;;15.90;9.77;;;;;;;20.65;66.56;98661.78;5031530;28;20486;-37
2022/09/27 01:23:30;;;;;;;11.38;9.93;;;;;;;20.70;66.60;98661.69;5114819;28;20548;-37
2022/09/27 01:26:13;;;;;;;11.32;9.30;;;;;;;20.81;65.52;98671.25;5114163;28;20035;-37
2022/09/27 01:29:06;;;;;;;11.43;8.88;;;;;;;20.86;65.75;98671.13;5114357;28;20034;-36
2022/09/27 01:32:00;;;;;;;11.18;8.23;;;;;;;20.82;65.74;98653.09;5114169;28;20028;-35
2022/09/27 01:34:53;;;;;;;8.65;7.75;;;;;;;20.78;65.80;98649.41;5096554;28;20222;-36
2022/09/27 01:37:31;;;;;;;8.15;7.30;;;;;;;20.78;65.18;98644.00;5113101;28;20048;-37
2022/09/27 01:39:57;;;;;;;8.65;7.50;;;;;;;20.79;65.29;98670.72;5113901;27;20111;-36
2022/09/27 01:42:59;;;;;;;8.25;7.32;;;;;;;20.89;65.16;98670.53;5113996;28;20126;-36
2022/09/27 01:45:30;;;;;;;9.25;7.93;;;;;;;20.92;65.30;98669.13;5040999;28;20037;-36
2022/09/27 01:48:00;;;;;;;7.70;7.00;;;;;;;20.89;64.89;98659.72;5113616;28;20034;-37
2022/09/27 01:50:33;;;;;;;8.15;7.35;;;;;;;20.93;64.51;98661.84;5113988;28;20028;-36
2022/09/27 01:53:11;;;;;;;12.93;7.85;;;;;;;21.04;64.32;98668.69;5113730;28;20032;-37
2022/09/27 01:55:38;;;;;;;9.73;7.85;;;;;;;20.96;64.69;98653.94;5113757;28;20471;-37
2022/09/27 01:58:36;;;;;;;8.63;7.72;;;;;;;21.05;64.64;98654.03;5113784;28;20372;-37
2022/09/27 02:01:04;;;;;;;8.27;7.47;;;;;;;20.93;64.73;98654.53;5113364;28;20570;-36
2022/09/27 02:03:39;;;;;;;10.40;7.78;;;;;;;20.95;65.21;98657.72;5113909;28;20095;-37
2022/09/27 02:06:13;;;;;;;8.20;7.40;;;;;;;21.01;64.83;98658.44;5113908;28;20023;-37
2022/09/27 02:08:46;;;;;;;8.90;7.70;;;;;;;21.09;64.75;98647.75;5113789;28;20019;-37
2022/09/27 02:11:13;;;;;;;7.88;7.07;;;;;;;21.20;63.97;98631.31;5113457;28;20028;-36
2022/09/27 02:13:53;;;;;;;8.77;7.63;;;;;;;21.19;63.67;98619.69;5113702;28;20015;-37
2022/09/27 02:16:39;;;;;;;8.88;7.43;;;;;;;21.26;64.00;98622.78;5113555;28;20027;-36
2022/09/27 02:19:23;;;;;;;9.90;7.80;;;;;;;21.16;64.23;98622.19;5113018;28;20019;-36
2022/09/27 02:22:01;;;;;;;8.55;7.68;;;;;;;21.06;64.39;98625.91;5113542;28;20142;-36
2022/09/27 02:24:38;;;;;;;8.45;7.50;;;;;;;21.18;64.29;98628.09;5113461;27;20382;-37
2022/09/27 02:27:19;;;;;;;8.32;7.50;;;;;;;21.22;64.62;98629.09;5113380;28;20043;-37
2022/09/27 02:29:52;;;;;;;8.02;7.22;;;;;;;21.18;64.34;98631.59;5112924;28;20020;-37
2022/09/27 02:32:18;;;;;;;8.35;7.55;;;;;;;21.29;63.82;98649.25;5101991;28;20028;-37
2022/09/27 02:34:45;;;;;;;8.73;7.82;;;;;;;21.21;63.99;98651.84;5113147;28;20513;-37
2022/09/27 02:37:11;;;;;;;10.65;7.90;;;;;;;21.14;64.44;98662.28;5113007;28;20506;-37
2022/09/27 02:39:37;;;;;;;12.52;8.15;;;;;;;21.04;65.02;98663.28;5113178;28;20024;-37
2022/09/27 02:42:04;;;;;;;10.15;8.65;;;;;;;21.09;64.49;98671.25;5112662;28;20093;-37
2022/09/27 02:44:30;;;;;;;10.65;7.72;;;;;;;21.01;65.34;98667.34;5112776;28;20023;-38
2022/09/27 02:47:27;;;;;;;8.70;7.70;;;;;;;21.06;65.50;98680.78;5112449;28;20407;-37
2022/09/27 02:50:13;;;;;;;8.77;7.88;;;;;;;21.18;64.62;98671.38;5111900;28;20032;-37
2022/09/27 02:53:00;;;;;;;11.32;8.43;;;;;;;21.12;64.54;98657.16;5097733;28;20036;-37
2022/09/27 02:55:31;;;;;;;13.05;8.57;;;;;;;21.03;64.87;98648.91;5112317;28;20292;-37
2022/09/27 02:58:03;;;;;;;11.20;8.98;;;;;;;20.81;65.77;98654.19;5111155;28;20019;-37
2022/09/27 03:00:44;;;;;;;13.70;9.60;;;;;;;20.38;67.60;98657.06;5112666;28;20020;-37
2022/09/27 03:03:21;;;;;;;10.27;9.13;;;;;;;20.41;67.28;98653.75;5112541;28;20019;-38
2022/09/27 03:06:05;;;;;;;10.60;8.70;;;;;;;20.64;66.72;98647.47;5112464;28;20027;-35
2022/09/27 03:08:31;;;;;;;11.13;9.02;;;;;;;20.58;66.30;98637.81;5111733;28;20027;-35
2022/09/27 03:10:56;;;;;;;10.30;9.00;;;;;;;20.77;65.51;98645.06;5112324;28;20448;-37
2022/09/27 03:13:22;;;;;;;17.35;12.73;;;;;;;20.60;65.91;98635.66;5112381;28;20031;-37
2022/09/27 03:15:47;;;;;;;15.50;9.88;;;;;;;20.64;65.79;98633.16;5112307;28;20027;-37
2022/09/27 03:18:13;;;;;;;67.78;44.40;;;;;;;20.59;65.61;98628.59;5112218;28;20019;-37
2022/09/27 03:20:38;;;;;;;16.30;13.30;;;;;;;20.38;66.74;98630.84;5112225;28;20039;-37
2022/09/27 03:23:03;;;;;;;9.35;8.35;;;;;;;20.40;66.31;98631.34;5112036;28;20497;-37
2022/09/27 03:25:29;;;;;;;12.75;8.70;;;;;;;20.33;66.23;98622.81;5112215;28;20098;-37
2022/09/27 03:27:54;;;;;;;9.30;8.20;;;;;;;20.18;66.37;98609.53;5111861;28;20072;-37
2022/09/27 03:30:20;;;;;;;9.48;8.15;;;;;;;20.33;65.87;98608.50;5111780;28;20072;-37
2022/09/27 03:32:45;;;;;;;10.32;7.85;;;;;;;20.33;65.95;98619.31;5111357;28;20486;-37
2022/09/27 03:35:12;;;;;;;8.93;7.93;;;;;;;19.96;66.91;98626.34;5112080;28;20023;-36
2022/09/27 03:37:38;;;;;;;13.18;8.75;;;;;;;20.17;66.56;98630.34;5112135;28;20079;-36
2022/09/27 03:40:04;;;;;;;11.77;8.77;;;;;;;19.84;67.38;98624.09;5110768;28;20106;-36
2022/09/27 03:42:30;;;;;;;16.00;10.07;;;;;;;19.86;66.77;98608.41;5098462;28;20031;-37
2022/09/27 03:44:55;;;;;;;18.58;12.27;;;;;;;19.62;67.95;98600.34;5091806;28;20024;-37
2022/09/27 03:47:21;;;;;;;17.92;12.82;;;;;;;19.87;66.70;98602.69;5090717;28;20020;-35
2022/09/27 03:49:47;;;;;;;13.82;8.90;;;;;;;20.00;66.06;98597.69;5089881;28;20451;-36
2022/09/27 03:52:13;;;;;;;15.85;8.35;;;;;;;20.04;65.55;98593.28;5091293;28;20032;-37
2022/09/27 03:54:38;;;;;;;9.73;8.05;;;;;;;20.17;64.67;98602.56;5091245;28;20504;-37
2022/09/27 03:57:04;;;;;;;10.18;7.55;;;;;;;20.17;64.44;98597.94;5090939;28;20022;-38
2022/09/27 03:59:30;;;;;;;11.70;7.35;;;;;;;20.01;65.07;98596.56;5090979;28;20480;-36
2022/09/27 04:01:55;;;;;;;9.02;7.22;;;;;;;20.17;64.95;98599.84;5090805;28;20046;-36
2022/09/27 04:04:21;;;;;;;11.25;7.20;;;;;;;20.22;64.19;98610.56;5090698;28;20069;-37
2022/09/27 04:06:46;;;;;;;9.88;6.97;;;;;;;20.16;64.12;98609.81;5091035;28;20081;-37
2022/09/27 04:09:11;;;;;;;9.32;6.72;;;;;;;20.16;64.05;98609.03;5090694;28;20024;-37
2022/09/27 04:11:37;;;;;;;8.93;6.60;;;;;;;20.19;63.72;98587.66;5090686;28;20024;-37
2022/09/27 04:14:04;;;;;;;10.85;7.03;;;;;;;20.20;64.01;98581.16;5090536;28;20480;-37
2022/09/27 04:16:31;;;;;;;13.93;6.75;;;;;;;20.24;63.99;98584.88;5090474;28;20028;-36
2022/09/27 04:18:56;;;;;;;19.35;12.40;;;;;;;20.26;63.36;98579.97;5090314;28;20024;-36
2022/09/27 04:21:22;;;;;;;11.88;8.68;;;;;;;20.39;63.12;98578.41;5090095;28;20052;-36
2022/09/27 04:23:47;;;;;;;16.85;12.55;;;;;;;20.46;62.92;98573.41;5090368;28;20092;-36
2022/09/27 04:26:13;;;;;;;11.57;8.52;;;;;;;20.40;63.17;98585.41;5090535;28;20028;-36
2022/09/27 04:28:39;;;;;;;11.77;7.13;;;;;;;20.30;63.47;98589.09;5090386;28;20016;-36
2022/09/27 04:31:04;;;;;;;13.18;7.30;;;;;;;20.48;62.88;98584.72;5089931;28;20043;-36
2022/09/27 04:33:30;;;;;;;9.00;7.18;;;;;;;20.36;62.92;98583.59;5090210;28;20492;-36
2022/09/27 04:38:39;;;;;;;25.45;7.65;;;;;;;20.23;63.07;98588.66;5090656;28;20026;-36
2022/09/27 04:41:06;;;;;;;14.63;7.55;;;;;;;20.14;63.13;98590.41;5090744;28;20107;-37
2022/09/27 04:43:31;;;;;;;11.15;7.40;;;;;;;20.17;63.07;98587.13;5095127;28;20435;-37
2022/09/27 04:45:57;;;;;;;8.18;7.10;;;;;;;20.33;62.67;98576.88;5091930;28;20042;-37
2022/09/27 04:48:22;;;;;;;9.80;6.70;;;;;;;20.48;61.90;98570.41;5099559;28;20039;-37
2022/09/27 04:50:56;;;;;;;10.30;7.07;;;;;;;20.64;61.86;98565.59;5090914;28;20031;-38
2022/09/27 04:53:21;;;;;;;12.75;7.45;;;;;;;20.79;60.60;98578.00;5089299;28;20112;-36
2022/09/27 04:55:48;;;;;;;12.60;7.10;;;;;;;20.86;60.57;98576.50;5090515;28;20028;-36
2022/09/27 04:58:14;;;;;;;14.35;7.03;;;;;;;20.89;60.37;98567.00;5089332;28;20020;-36
2022/09/27 05:00:42;;;;;;;13.07;7.18;;;;;;;20.84;60.43;98556.28;5088282;28;20115;-37
2022/09/27 05:03:07;;;;;;;14.93;6.93;;;;;;;20.93;59.88;98565.28;5088716;28;20020;-37
2022/09/27 05:05:33;;;;;;;11.30;6.97;;;;;;;20.97;59.72;98563.59;5088025;28;20026;-37
2022/09/27 05:07:58;;;;;;;10.80;7.22;;;;;;;21.06;59.72;98569.13;5088141;28;20024;-37
2022/09/27 05:10:24;;;;;;;12.45;7.72;;;;;;;21.15;59.31;98569.19;5087145;28;20085;-37
2022/09/27 05:12:49;;;;;;;12.68;7.72;;;;;;;21.20;59.03;98563.69;5088519;28;20450;-37
2022/09/27 05:15:15;;;;;;;13.98;8.50;;;;;;;21.24;58.65;98561.97;5088585;28;20417;-36
2022/09/27 05:17:40;;;;;;;17.88;9.40;;;;;;;21.11;58.96;98577.09;5088939;28;20028;-37
2022/09/27 05:20:06;;;;;;;28.10;18.83;;;;;;;21.25;59.31;98574.41;5088812;28;20119;-37
2022/09/27 05:22:31;;;;;;;11.38;8.40;;;;;;;21.19;59.52;98581.81;5089305;28;20459;-37
2022/09/27 05:24:57;;;;;;;14.63;7.60;;;;;;;21.35;58.64;98579.59;5090116;28;20024;-37
2022/09/27 05:27:22;;;;;;;14.93;8.32;;;;;;;21.28;59.00;98565.66;5089706;28;20036;-37
2022/09/27 05:29:47;;;;;;;14.20;7.55;;;;;;;20.94;59.59;98555.28;5089590;28;20051;-37
2022/09/27 05:32:14;;;;;;;17.83;8.10;;;;;;;21.15;58.43;98521.31;5089737;28;20084;-37
2022/09/27 05:34:40;;;;;;;21.73;7.95;;;;;;;21.57;57.67;98549.13;5089942;28;20036;-37
2022/09/27 05:37:05;;;;;;;17.88;8.63;;;;;;;21.70;56.97;98547.47;5089852;28;20552;-37
2022/09/27 05:39:31;;;;;;;21.27;9.02;;;;;;;21.84;56.89;98548.22;5088424;28;20035;-37
2022/09/27 05:41:56;;;;;;;12.00;6.85;;;;;;;21.76;56.39;98548.97;5090147;28;20123;-37
2022/09/27 05:44:22;;;;;;;16.27;7.30;;;;;;;21.85;55.94;98540.91;5089819;28;20538;-37
2022/09/27 05:46:47;;;;;;;15.02;7.45;;;;;;;22.06;55.48;98535.78;5089229;28;20031;-37
2022/09/27 05:49:13;;;;;;;17.60;7.47;;;;;;;22.12;55.07;98534.56;5089454;28;20027;-37
2022/09/27 05:51:38;;;;;;;16.73;7.82;;;;;;;22.20;54.97;98533.81;5090018;28;20050;-37
2022/09/27 05:54:04;;;;;;;13.80;6.95;;;;;;;22.30;54.89;98548.25;5088326;28;20028;-37
2022/09/27 05:56:29;;;;;;;16.02;7.35;;;;;;;22.37;54.76;98543.16;5093331;28;20032;-37
2022/09/27 05:58:55;;;;;;;17.70;6.70;;;;;;;22.35;54.24;98557.06;5093512;28;20054;-36
2022/09/27 06:01:20;;;;;;;18.35;7.22;;;;;;;22.04;54.43;98543.44;5093599;28;20024;-36
2022/09/27 06:03:46;;;;;;;26.45;11.10;;;;;;;22.20;53.98;98533.81;5093616;28;20444;-37
2022/09/27 06:06:14;;;;;;;22.20;10.40;;;;;;;21.96;54.45;98534.13;5093140;28;20035;-36
2022/09/27 06:08:40;;;;;;;19.20;9.32;;;;;;;21.86;55.15;98537.09;5093434;28;20032;-36
2022/09/27 06:11:08;;;;;;;12.82;7.93;;;;;;;22.08;54.99;98530.84;5093133;28;20122;-36
2022/09/27 06:13:38;;;;;;;19.40;10.15;;;;;;;22.24;54.35;98521.25;5093264;28;20016;-36
2022/09/27 06:16:05;;;;;;;12.18;8.02;;;;;;;22.19;53.96;98531.41;5093001;28;20478;-36
2022/09/27 06:18:30;;;;;;;15.18;7.95;;;;;;;21.59;55.65;98527.97;5092705;28;20018;-36
2022/09/27 06:20:59;;;;;;;19.55;9.30;;;;;;;21.67;55.48;98534.56;5092997;28;20047;-36
2022/09/27 06:23:25;;;;;;;17.48;9.30;;;;;;;21.73;55.81;98544.16;5093382;28;20028;-36
2022/09/27 06:25:51;;;;;;;11.70;8.50;;;;;;;21.85;55.28;98530.06;5092852;28;20141;-36
2022/09/27 06:28:17;;;;;;;14.48;7.97;;;;;;;22.25;54.06;98528.28;5092493;28;20194;-36
2022/09/27 06:30:45;;;;;;;10.55;7.88;;;;;;;22.28;54.24;98528.81;5093024;28;20028;-36
2022/09/27 06:33:13;;;;;;;15.27;7.85;;;;;;;22.49;53.59;98546.13;5092585;28;20093;-37
2022/09/27 06:35:39;;;;;;;17.52;10.43;;;;;;;22.37;54.52;98571.09;5092847;28;20020;-37
2022/09/27 06:38:08;;;;;;;16.70;9.43;;;;;;;22.71;53.85;98577.78;5092735;28;20107;-37
2022/09/27 06:40:34;;;;;;;15.05;9.40;;;;;;;22.86;53.28;98549.47;5092589;28;20040;-36
2022/09/27 06:43:08;;;;;;;14.13;8.48;;;;;;;23.01;52.77;98550.94;5092558;28;20028;-36
2022/09/27 06:45:35;;;;;;;15.15;7.88;;;;;;;22.83;53.13;98550.91;5092428;28;20093;-36
2022/09/27 06:48:02;;;;;;;20.30;9.85;;;;;;;22.91;52.63;98560.19;5092007;28;20512;-37
2022/09/27 06:50:29;;;;;;;17.58;10.38;;;;;;;22.81;53.00;98555.03;5091956;28;20024;-38
2022/09/27 06:52:55;;;;;;;13.27;8.43;;;;;;;22.98;52.65;98538.84;5091871;28;20444;-37
2022/09/27 06:55:20;;;;;;;14.82;7.85;;;;;;;22.93;52.69;98528.13;5091645;28;20536;-38
2022/09/27 07:00:30;;;;;;;20.92;12.15;;;;;;;22.95;53.29;98547.59;5092052;28;20111;-37
2022/09/27 07:02:59;;;;;;;12.95;7.03;;;;;;;22.39;54.64;98549.09;5091512;28;20130;-37
2022/09/27 07:05:28;;;;;;;;;;;;;;;23.09;53.58;98549.41;5090536;28;20411;-37
2022/09/27 07:07:56;;;;;;;12.75;7.18;;;;;;;23.60;52.73;98559.56;5090729;28;20017;-37
2022/09/27 07:10:27;;;;;;;13.98;7.38;;;;;;;23.87;52.27;98563.09;5091069;28;20016;-37
2022/09/27 07:12:53;;;;;;;8.27;6.15;;;;;;;24.31;51.14;98547.56;5091100;28;20024;-37
2022/09/27 07:15:22;;;;;;;8.65;5.50;;;;;;;24.86;49.85;98551.38;5091050;28;20046;-37
2022/09/27 07:17:57;;;;;;;7.65;5.85;;;;;;;24.86;48.68;98551.38;5091369;28;20062;-37
2022/09/27 07:20:23;;;;;;;9.80;6.78;;;;;;;24.45;50.05;98549.28;5090591;28;20052;-37
2022/09/27 07:22:48;;;;;;;6.47;5.28;;;;;;;24.25;50.05;98551.56;5090967;28;20035;-37
2022/09/27 07:25:14;;;;;;;7.97;5.28;;;;;;;24.72;49.17;98550.81;5090783;28;20028;-37
2022/09/27 07:27:40;;;;;;;7.50;5.28;;;;;;;25.11;48.61;98546.13;5090940;28;20034;-37
2022/09/27 07:30:09;;;;;;;9.07;5.20;;;;;;;25.29;48.27;98544.16;5089647;28;20052;-36
2022/09/27 07:32:35;;;;;;;6.63;5.05;;;;;;;25.45;46.96;98536.19;5090588;28;20439;-37
2022/09/27 07:35:02;;;;;;;8.75;4.97;;;;;;;25.38;47.40;98517.69;5090618;28;20024;-36
2022/09/27 07:37:27;;;;;;;9.82;5.50;;;;;;;25.29;47.82;98508.78;5090800;28;20111;-37
2022/09/27 07:39:53;;;;;;;10.50;6.05;;;;;;;25.18;48.05;98516.47;5090696;28;20111;-36
2022/09/27 07:42:19;;;;;;;9.40;5.47;;;;;;;25.54;47.63;98537.72;5090638;28;20036;-37
2022/09/27 07:44:44;;;;;;;6.75;5.28;;;;;;;26.33;46.21;98550.66;5090764;28;20042;-37
2022/09/27 07:47:10;;;;;;;9.50;4.97;;;;;;;26.80;44.76;98549.53;5090540;28;20032;-37
2022/09/27 07:49:35;;;;;;;6.35;5.00;;;;;;;27.10;44.28;98556.34;5090404;28;20031;-37
2022/09/27 07:52:01;;;;;;;11.52;5.63;;;;;;;27.30;43.75;98546.47;5090622;28;20028;-37
2022/09/27 07:54:27;;;;;;;10.77;4.85;;;;;;;27.43;43.81;98552.69;5090462;28;20050;-37
2022/09/27 07:56:54;;;;;;;7.28;5.22;;;;;;;27.79;43.07;98544.75;5090350;28;20024;-38
2022/09/27 07:59:19;;;;;;;13.32;6.75;;;;;;;27.90;42.24;98547.81;5090479;28;20035;-37
2022/09/27 08:01:45;;;;;;;7.90;6.00;;;;;;;28.03;41.63;98539.22;5090451;28;20442;-37
2022/09/27 08:04:10;;;;;;;7.03;5.30;;;;;;;28.22;40.95;98537.75;5089973;28;20039;-38
2022/09/27 08:06:36;;;;;;;11.95;5.80;;;;;;;28.06;41.26;98540.44;5089909;28;20030;-37
2022/09/27 08:09:05;;;;;;;10.52;5.47;;;;;;;27.80;42.30;98541.69;5089924;28;20032;-38
2022/09/27 08:11:30;;;;;;;;;;;;;;;28.37;41.08;98538.91;5090344;28;20475;-38
2022/09/27 08:13:56;;;;;;;6.65;4.50;;;;;;;28.47;40.89;98528.25;5090111;28;20053;-37
2022/09/27 08:16:21;;;;;;;7.60;4.78;;;;;;;27.98;41.56;98527.72;5089760;28;20016;-37
2022/09/27 08:18:47;;;;;;;5.45;4.45;;;;;;;28.71;40.35;98534.75;5089633;28;20352;-38
2022/09/27 08:21:12;;;;;;;7.93;4.20;;;;;;;27.35;42.38;98539.97;5089667;28;20091;-36
2022/09/27 08:23:38;;;;;;;4.78;4.30;;;;;;;28.04;40.21;98532.59;5089826;28;20067;-37
2022/09/27 08:26:03;;;;;;;6.65;5.30;;;;;;;28.46;39.89;98532.16;5089690;28;20028;-37
2022/09/27 08:28:30;;;;;;;5.72;4.30;;;;;;;28.36;40.07;98529.91;5089304;28;20131;-37
2022/09/27 08:30:58;;;;;;;6.07;4.50;;;;;;;28.25;39.70;98526.09;5089902;28;20463;-37
2022/09/27 08:33:24;;;;;;;4.80;4.30;;;;;;;27.46;41.46;98529.38;5089893;28;20067;-38
2022/09/27 08:35:50;;;;;;;6.30;4.40;;;;;;;27.81;40.83;98524.13;5089645;28;20561;-37
2022/09/27 08:38:16;;;;;;;4.97;4.32;;;;;;;27.69;40.64;98524.97;5090587;28;20012;-37
2022/09/27 08:40:56;;;;;;;4.40;3.97;;;;;;;27.76;40.98;98534.50;5090576;28;20099;-38
2022/09/27 08:43:51;;;;;;;6.95;4.65;;;;;;;27.47;41.30;98530.94;5090498;28;20054;-38
2022/09/27 08:46:19;;;;;;;10.63;4.90;;;;;;;27.21;41.90;98528.59;5089717;28;20417;-37
2022/09/27 08:48:52;;;;;;;8.35;4.70;;;;;;;26.51;43.67;98513.09;5089756;28;20460;-38
2022/09/27 08:51:24;;;;;;;8.70;5.10;;;;;;;27.08;42.89;98511.44;5089242;28;20039;-38
2022/09/27 08:54:00;;;;;;;8.35;5.00;;;;;;;27.58;41.96;98504.72;5089620;28;20024;-37
2022/09/27 08:56:25;;;;;;;8.10;4.80;;;;;;;28.29;40.78;98499.63;5089409;28;20016;-37
2022/09/27 08:59:11;;;;;;;7.07;5.35;;;;;;;28.76;40.06;98500.81;5089120;28;20077;-37
2022/09/27 09:01:37;;;;;;;7.40;4.30;;;;;;;27.28;42.37;98505.06;5088012;28;20131;-38
2022/09/27 09:04:04;;;;;;;5.95;4.38;;;;;;;27.59;41.88;98500.88;5089411;28;20480;-37
2022/09/27 09:06:33;;;;;;;5.78;4.70;;;;;;;28.40;40.22;98495.25;5089244;28;20032;-37
2022/09/27 09:09:05;;;;;;;10.13;6.60;;;;;;;28.20;39.70;98494.34;5089288;28;20105;-37
2022/09/27 09:14:36;;;;;;;4.95;4.05;;;;;;;28.71;38.70;98493.69;5089513;28;20082;-37
2022/09/27 09:17:18;;;;;;;6.65;3.78;;;;;;;28.90;38.87;98483.94;5089463;28;20107;-37
2022/09/27 09:19:54;;;;;;;6.00;4.00;;;;;;;29.46;37.71;98483.63;5089286;28;20064;-37
2022/09/27 09:22:35;;;;;;;9.15;4.30;;;;;;;29.32;37.96;98483.31;5089097;28;20103;-37
2022/09/27 09:25:28;;;;;;;6.88;4.13;;;;;;;29.28;38.21;98469.53;5089440;28;20104;-38
2022/09/27 09:28:05;;;;;;;6.20;4.20;;;;;;;29.62;37.69;98461.63;5089107;28;20059;-37
2022/09/27 09:30:37;;;;;;;4.60;4.07;;;;;;;29.78;36.98;98456.88;5092240;28;20486;-38
2022/09/27 09:33:26;;;;;;;5.13;4.18;;;;;;;29.76;37.27;98453.72;5093000;28;20020;-38
2022/09/27 09:36:01;;;;;;;4.80;3.97;;;;;;;30.26;35.70;98445.59;5093418;28;20020;-38
2022/09/27 09:38:42;;;;;;;6.15;3.90;;;;;;;30.52;35.09;98436.63;5093928;28;20073;-38
2022/09/27 09:41:19;;;;;;;6.28;3.65;;;;;;;30.93;35.14;98433.31;5093839;28;20172;-38
2022/09/27 09:44:09;;;;;;;5.40;3.97;;;;;;;30.57;34.78;98430.03;5093425;28;20023;-38
2022/09/27 09:46:41;;;;;;;4.80;3.83;;;;;;;30.47;35.27;98425.97;5092833;28;20032;-38
2022/09/27 09:49:33;;;;;;;5.88;3.80;;;;;;;30.19;35.50;98429.78;5092879;28;20104;-38
2022/09/27 09:52:11;;;;;;;6.07;4.13;;;;;;;30.29;35.54;98414.69;5092990;28;20032;-38
2022/09/27 09:54:43;;;;;;;4.35;3.90;;;;;;;30.35;36.03;98410.50;5092595;28;20325;-37
2022/09/27 09:57:14;;;;;;;6.70;4.15;;;;;;;30.44;36.06;98415.72;5093079;28;20066;-38
2022/09/27 09:59:48;;;;;;;4.45;3.53;;;;;;;29.76;35.79;98398.13;5092763;28;20122;-38
2022/09/27 10:02:24;;;;;;;5.80;3.67;;;;;;;29.95;35.50;98389.81;5093371;28;20030;-38
2022/09/27 10:04:49;;;;;;;5.60;3.60;;;;;;;28.87;36.76;98389.63;5092987;28;20031;-38
2022/09/27 10:07:22;;;;;;;3.92;3.50;;;;;;;29.00;36.34;98391.09;5093180;28;20020;-38
2022/09/27 10:09:48;;;;;;;3.60;3.30;;;;;;;29.94;35.33;98401.94;5093001;28;20391;-37
2022/09/27 10:12:14;;;;;;;3.58;3.22;;;;;;;30.63;34.30;98409.31;5092718;28;20081;-37
2022/09/27 10:14:40;;;;;;;5.47;3.85;;;;;;;31.22;33.27;98393.28;5092916;28;20027;-37
2022/09/27 10:17:13;;;;;;;8.45;3.80;;;;;;;31.55;33.25;98392.50;5092525;28;20012;-37
2022/09/27 10:19:40;;;;;;;7.10;4.07;;;;;;;31.03;33.10;98393.44;5092819;28;20047;-37
2022/09/27 10:22:29;;;;;;;4.65;3.70;;;;;;;29.73;35.25;98393.34;5092467;28;20020;-37
2022/09/27 10:24:58;;;;;;;3.95;3.47;;;;;;;29.05;36.38;98384.53;5092653;28;20020;-38
2022/09/27 10:27:25;;;;;;;6.22;3.88;;;;;;;29.12;37.16;98381.16;5092448;28;20032;-37
2022/09/27 10:29:58;;;;;;;5.38;3.92;;;;;;;29.28;36.55;98384.63;5092229;28;20483;-37
2022/09/27 10:32:34;;;;;;;4.10;3.65;;;;;;;29.54;36.28;98377.69;5092331;28;20039;-37
2022/09/27 10:35:28;;;;;;;5.82;4.00;;;;;;;29.63;36.44;98379.03;5092072;28;20024;-37
2022/09/27 10:38:21;;;;;;;4.40;3.80;;;;;;;28.71;37.68;98367.81;5091890;28;20109;-37
2022/09/27 10:40:48;;;;;;;7.38;4.03;;;;;;;28.42;38.25;98367.09;5090977;28;20430;-37
2022/09/27 10:43:26;;;;;;;5.13;3.50;;;;;;;28.72;37.60;98358.44;5091318;28;20052;-38
2022/09/27 10:46:03;;;;;;;4.93;3.83;;;;;;;27.95;38.61;98357.03;5091611;28;20020;-37
2022/09/27 10:48:29;;;;;;;4.65;4.10;;;;;;;27.53;40.34;98349.28;5091654;28;20038;-37
2022/09/27 10:51:04;;;;;;;4.20;3.65;;;;;;;27.75;40.01;98355.31;5091216;28;20032;-37
2022/09/27 10:53:31;;;;;;;5.15;3.80;;;;;;;28.28;38.92;98336.72;5091561;28;20063;-37
2022/09/27 10:55:57;;;;;;;4.97;3.90;;;;;;;28.30;38.98;98339.09;5091388;28;20024;-36
2022/09/27 10:58:35;;;;;;;4.28;3.83;;;;;;;28.93;37.28;98338.94;5091572;28;20396;-36
2022/09/27 11:01:06;;;;;;;7.13;3.88;;;;;;;29.48;37.51;98344.31;5090309;28;20115;-36
2022/09/27 11:03:36;;;;;;;6.00;3.88;;;;;;;28.73;38.27;98332.66;5092051;28;20028;-37
2022/09/27 11:06:23;;;;;;;5.80;3.88;;;;;;;28.69;38.03;98331.75;5091892;28;20036;-38
2022/09/27 11:08:51;;;;;;;4.05;3.65;;;;;;;28.98;37.30;98333.16;5091462;28;20456;-35
2022/09/27 11:11:23;;;;;;;3.92;3.53;;;;;;;29.47;36.62;98328.25;5091383;28;20066;-36
2022/09/27 11:14:03;;;;;;;5.55;3.60;;;;;;;29.72;35.79;98320.44;5092002;28;20047;-37
2022/09/27 11:16:50;;;;;;;7.78;3.80;;;;;;;30.14;34.91;98327.81;5111803;28;20031;-37
2022/09/27 11:19:47;;;;;;;4.70;3.80;;;;;;;30.31;34.97;98315.53;5111981;28;20471;-37
2022/09/27 11:22:38;;;;;;;5.43;3.38;;;;;;;30.42;34.78;98313.75;5080023;28;20507;-37
2022/09/27 11:25:14;;;;;;;;;;;;;;;31.05;34.37;98314.19;5112652;28;20107;-37
2022/09/27 11:27:59;;;;;;;3.45;3.15;;;;;;;31.51;33.45;98320.22;5111962;28;19923;-37
2022/09/27 11:30:34;;;;;;;5.85;3.60;;;;;;;31.06;33.15;98316.56;5111227;28;20098;-37
2022/09/27 11:33:18;;;;;;;9.95;3.83;;;;;;;30.95;34.11;98310.16;5108433;28;20035;-37
2022/09/27 11:35:46;;;;;;;5.13;3.67;;;;;;;31.63;33.52;98315.63;5109933;28;20464;-37
2022/09/27 11:38:48;;;;;;;5.63;3.50;;;;;;;32.26;32.30;98309.06;5112106;28;20070;-37
2022/09/27 11:41:22;;;;;;;6.18;4.57;;;;;;;32.04;31.66;98299.06;5111009;28;20118;-37
2022/09/27 11:43:48;;;;;;;12.40;8.20;;;;;;;31.88;31.97;98288.31;5109046;28;20043;-37
2022/09/27 11:46:22;;;;;;;5.70;3.72;;;;;;;31.24;32.12;98283.00;5111149;28;20459;-37
2022/09/27 11:49:06;;;;;;;6.82;3.70;;;;;;;30.58;33.04;98286.16;5111303;28;20027;-37
2022/09/27 11:52:14;;;;;;;5.78;3.30;;;;;;;30.99;33.08;98275.28;5111510;28;20035;-37
2022/09/27 11:54:46;;;;;;;6.28;3.70;;;;;;;30.83;33.03;98272.75;5111478;28;20088;-36
2022/09/27 11:57:11;;;;;;;5.18;3.40;;;;;;;31.33;32.79;98278.78;5111422;28;20024;-37